createdAt,value
2019-05-25T00:00:55.908Z,120.00
2019-05-25T00:01:55.880Z,128.00
2019-05-25T00:02:55.884Z,136.00
2019-05-25T00:03:55.860Z,148.00
2019-05-25T00:04:55.849Z,160.00
2019-05-25T00:05:55.938Z,172.00
2019-05-25T00:06:55.829Z,184.00
2019-05-25T00:07:55.817Z,204.00
2019-05-25T00:08:55.806Z,220.00
2019-05-25T00:09:55.797Z,236.00
2019-05-25T00:10:55.785Z,252.00
2019-05-25T00:11:55.825Z,268.00
2019-05-25T00:12:55.769Z,284.00
2019-05-25T00:13:55.757Z,300.00
2019-05-25T00:14:55.743Z,312.00
2019-05-25T00:15:55.734Z,324.00
2019-05-25T00:16:55.773Z,336.00
2019-05-25T00:17:55.714Z,344.00
2019-05-25T00:18:55.703Z,360.00
2019-05-25T00:19:55.693Z,380.00
2019-05-25T00:20:55.680Z,412.00
2019-05-25T00:21:55.674Z,448.00
2019-05-25T00:22:55.710Z,484.00
2019-05-25T00:24:10.868Z,524.00
2019-05-25T00:25:20.453Z,596.00
2019-05-25T00:26:20.443Z,644.00
2019-05-25T00:27:20.433Z,696.00
2019-05-25T00:28:20.470Z,736.00
2019-05-25T00:29:20.410Z,752.00
2019-05-25T00:30:20.401Z,756.00
2019-05-25T00:31:20.390Z,764.00
2019-05-25T00:32:20.376Z,788.00
2019-05-25T00:33:20.369Z,852.00
2019-05-25T00:34:20.406Z,1384.00
2019-05-25T00:35:20.349Z,2032.00
2019-05-25T00:36:20.337Z,2448.00
2019-05-25T00:37:20.325Z,2472.00
2019-05-25T00:38:20.314Z,1700.00
2019-05-25T00:39:20.304Z,1016.00
2019-05-25T00:41:20.435Z,964.00
2019-05-25T00:42:20.272Z,964.00
2019-05-25T00:43:20.269Z,960.00
2019-05-25T00:44:20.249Z,952.00
2019-05-25T00:45:20.239Z,948.00
2019-05-25T00:46:20.228Z,956.00
2019-05-25T00:48:20.254Z,1056.00
2019-05-25T00:49:20.194Z,1160.00
2019-05-25T00:50:20.194Z,1300.00
2019-05-25T00:51:20.176Z,1524.00
2019-05-25T00:52:20.166Z,1816.00
2019-05-25T00:53:20.152Z,2172.00
2019-05-25T00:54:27.901Z,2556.00
2019-05-25T00:55:44.943Z,3060.00
2019-05-25T00:56:44.933Z,3344.00
2019-05-25T00:57:44.922Z,3600.00
2019-05-25T00:58:44.909Z,3736.00
2019-05-25T00:59:44.952Z,3984.00
2019-05-25T01:00:44.892Z,4352.00
2019-05-25T01:01:44.881Z,4720.00
2019-05-25T01:02:44.905Z,5048.00
2019-05-25T01:03:44.858Z,5320.00
2019-05-25T01:04:44.845Z,5400.00
2019-05-25T01:05:44.885Z,5456.00
2019-05-25T01:06:44.879Z,5624.00
2019-05-25T01:07:44.817Z,5940.00
2019-05-25T01:08:44.805Z,6268.00
2019-05-25T01:09:44.792Z,6412.00
2019-05-25T01:10:44.961Z,6672.00
2019-05-25T01:11:44.777Z,6920.00
2019-05-25T01:12:44.776Z,7352.00
2019-05-25T01:13:44.754Z,7576.00
2019-05-25T01:14:44.744Z,7484.00
2019-05-25T01:15:44.729Z,7328.00
2019-05-25T01:16:44.815Z,7528.00
2019-05-25T01:17:44.707Z,8656.00
2019-05-25T01:18:44.700Z,8980.00
2019-05-25T01:19:44.687Z,12144.00
2019-05-25T01:20:44.678Z,10524.00
2019-05-25T01:21:44.663Z,8856.00
2019-05-25T01:22:44.713Z,9132.00
2019-05-25T01:23:44.644Z,9088.00
2019-05-25T01:24:45.056Z,10088.00
2019-05-25T01:25:44.623Z,11788.00
2019-05-25T01:26:44.611Z,18084.00
2019-05-25T01:27:44.601Z,13272.00
2019-05-25T01:29:44.629Z,8220.00
2019-05-25T01:30:44.571Z,6608.00
2019-05-25T01:31:44.566Z,5544.00
2019-05-25T01:32:44.552Z,4760.00
2019-05-25T01:33:44.537Z,4148.00
2019-05-25T01:34:44.530Z,3780.00
2019-05-25T01:35:44.623Z,3560.00
2019-05-25T01:36:44.509Z,3380.00
2019-05-25T01:37:48.236Z,3296.00
2019-05-25T01:38:44.487Z,3256.00
2019-05-25T01:39:44.475Z,3200.00
2019-05-25T01:40:44.466Z,3180.00
2019-05-25T01:42:44.698Z,3304.00
2019-05-25T01:43:44.434Z,3544.00
2019-05-25T01:44:44.426Z,3700.00
2019-05-25T01:45:44.413Z,4020.00
2019-05-25T01:46:44.403Z,4348.00
2019-05-25T01:47:44.449Z,4640.00
2019-05-25T01:48:44.381Z,5140.00
2019-05-25T01:49:44.372Z,5532.00
2019-05-25T01:50:44.362Z,5968.00
2019-05-25T01:51:44.349Z,7012.00
2019-05-25T01:52:44.338Z,8976.00
2019-05-25T01:54:58.849Z,21248.00
2019-05-25T01:56:09.119Z,14776.00
2019-05-25T01:57:09.115Z,70368.00
2019-05-25T01:58:09.100Z,26176.00
2019-05-25T01:59:09.092Z,55392.00
2019-05-25T02:02:09.208Z,17836.00
2019-05-25T02:03:09.093Z,12900.00
2019-05-25T02:04:09.035Z,9400.00
2019-05-25T02:05:09.066Z,7944.00
2019-05-25T02:06:09.042Z,7184.00
2019-05-25T02:07:09.003Z,6916.00
2019-05-25T02:08:09.042Z,6640.00
2019-05-25T02:09:08.984Z,6424.00
2019-05-25T02:10:08.974Z,6380.00
2019-05-25T02:11:08.960Z,6388.00
2019-05-25T02:12:08.948Z,6240.00
2019-05-25T02:13:08.938Z,6452.00
2019-05-25T02:15:08.967Z,7216.00
2019-05-25T02:16:08.906Z,7324.00
2019-05-25T02:17:08.892Z,7396.00
2019-05-25T02:18:08.886Z,7212.00
2019-05-25T02:19:08.876Z,6688.00
2019-05-25T02:20:08.863Z,6620.00
2019-05-25T02:21:08.903Z,6864.00
2019-05-25T02:22:08.843Z,7324.00
2019-05-25T02:23:08.831Z,7588.00
2019-05-25T02:24:08.822Z,7824.00
2019-05-25T02:25:17.731Z,8148.00
2019-05-25T02:26:33.660Z,8620.00
2019-05-25T02:27:33.600Z,9104.00
2019-05-25T02:28:33.591Z,10304.00
2019-05-25T02:29:33.578Z,15248.00
2019-05-25T02:30:33.571Z,10036.00
2019-05-25T02:31:33.555Z,8000.00
2019-05-25T02:32:33.646Z,7192.00
2019-05-25T02:33:33.535Z,6816.00
2019-05-25T02:34:33.525Z,6888.00
2019-05-25T02:35:33.515Z,6620.00
2019-05-25T02:36:33.501Z,5976.00
2019-05-25T02:37:33.492Z,5616.00
2019-05-25T02:38:33.531Z,5308.00
2019-05-25T02:39:33.465Z,5228.00
2019-05-25T02:40:33.454Z,5212.00
2019-05-25T02:41:33.445Z,5184.00
2019-05-25T02:42:33.432Z,5296.00
2019-05-25T02:43:33.422Z,5468.00
2019-05-25T02:44:33.464Z,5712.00
2019-05-25T02:45:33.404Z,5848.00
2019-05-25T02:46:33.409Z,5812.00
2019-05-25T02:47:33.399Z,5736.00
2019-05-25T02:48:33.367Z,5572.00
2019-05-25T02:49:33.507Z,5320.00
2019-05-25T02:50:33.346Z,5100.00
2019-05-25T02:51:33.335Z,5064.00
2019-05-25T02:52:33.323Z,5148.00
2019-05-25T02:53:33.313Z,5256.00
2019-05-25T02:54:33.302Z,5540.00
2019-05-25T02:55:34.934Z,5828.00
2019-05-25T02:56:33.281Z,6248.00
2019-05-25T02:57:33.272Z,6556.00
2019-05-25T02:58:33.259Z,6752.00
2019-05-25T02:59:33.248Z,7016.00
2019-05-25T03:00:33.253Z,7324.00
2019-05-25T03:01:33.276Z,7384.00
2019-05-25T03:02:33.214Z,7900.00
2019-05-25T03:03:33.204Z,8076.00
2019-05-25T03:04:33.193Z,9000.00
2019-05-25T03:05:33.182Z,9824.00
2019-05-25T03:06:33.170Z,8996.00
2019-05-25T03:07:33.411Z,10244.00
2019-05-25T03:08:33.150Z,9448.00
2019-05-25T03:09:33.156Z,9880.00
2019-05-25T03:10:33.126Z,9764.00
2019-05-25T03:11:33.122Z,9564.00
2019-05-25T03:12:33.104Z,8856.00
2019-05-25T03:13:33.149Z,8320.00
2019-05-25T03:14:33.089Z,8076.00
2019-05-25T03:15:33.072Z,7400.00
2019-05-25T03:16:33.078Z,7248.00
2019-05-25T03:17:33.076Z,6960.00
2019-05-25T03:18:33.037Z,6792.00
2019-05-25T03:19:33.077Z,6656.00
2019-05-25T03:20:33.019Z,6628.00
2019-05-25T03:21:33.006Z,6712.00
2019-05-25T03:22:32.997Z,6840.00
2019-05-25T03:23:32.985Z,6832.00
2019-05-25T03:24:32.972Z,6576.00
2019-05-25T03:26:33.001Z,5868.00
2019-05-25T03:27:32.941Z,5480.00
2019-05-25T03:28:32.929Z,5104.00
2019-05-25T03:29:32.918Z,4852.00
2019-05-25T03:30:32.926Z,4708.00
2019-05-25T03:31:32.904Z,4644.00
2019-05-25T03:32:32.935Z,4652.00
2019-05-25T03:33:32.875Z,4668.00
2019-05-25T03:34:32.861Z,4660.00
2019-05-25T03:35:32.892Z,4676.00
2019-05-25T03:36:32.841Z,4732.00
2019-05-25T03:37:32.832Z,4840.00
2019-05-25T03:38:32.920Z,4992.00
2019-05-25T03:39:32.807Z,5160.00
2019-05-25T03:40:32.794Z,5340.00
2019-05-25T03:41:32.786Z,5600.00
2019-05-25T03:42:32.776Z,5912.00
2019-05-25T03:43:32.766Z,6140.00
2019-05-25T03:44:32.802Z,6268.00
2019-05-25T03:45:32.742Z,6344.00
2019-05-25T03:46:32.735Z,6492.00
2019-05-25T03:47:32.722Z,6664.00
2019-05-25T03:48:32.707Z,6864.00
2019-05-25T03:49:32.696Z,7096.00
2019-05-25T03:50:32.786Z,7272.00
2019-05-25T03:51:32.675Z,7656.00
2019-05-25T03:52:32.666Z,7676.00
2019-05-25T03:53:32.656Z,7864.00
2019-05-25T03:54:32.642Z,8348.00
2019-05-25T03:55:32.785Z,9520.00
2019-05-25T03:56:32.621Z,11568.00
2019-05-25T03:57:32.608Z,10940.00
2019-05-25T03:58:32.598Z,10344.00
2019-05-25T03:59:32.588Z,10904.00
2019-05-25T04:00:32.579Z,10504.00
2019-05-25T04:01:32.667Z,10116.00
2019-05-25T04:02:32.553Z,9824.00
2019-05-25T04:03:32.544Z,9832.00
2019-05-25T04:04:32.533Z,9784.00
2019-05-25T04:05:32.526Z,10076.00
2019-05-25T04:06:32.510Z,10308.00
2019-05-25T04:07:32.547Z,11328.00
2019-05-25T04:08:32.486Z,10652.00
2019-05-25T04:09:32.478Z,12296.00
2019-05-25T04:10:32.471Z,11984.00
2019-05-25T04:11:32.454Z,11976.00
2019-05-25T04:12:32.443Z,12160.00
2019-05-25T04:13:32.582Z,11500.00
2019-05-25T04:14:32.424Z,11820.00
2019-05-25T04:15:32.411Z,10048.00
2019-05-25T04:16:32.404Z,10068.00
2019-05-25T04:17:32.399Z,10052.00
2019-05-25T04:18:32.383Z,9456.00
2019-05-25T04:19:32.420Z,9032.00
2019-05-25T04:20:32.358Z,8644.00
2019-05-25T04:21:32.346Z,8544.00
2019-05-25T04:22:32.337Z,8560.00
2019-05-25T04:23:32.326Z,8776.00
2019-05-25T04:24:32.316Z,9084.00
2019-05-25T04:25:32.354Z,9796.00
2019-05-25T04:26:32.292Z,10540.00
2019-05-25T04:27:32.283Z,12152.00
2019-05-25T04:28:32.273Z,11464.00
2019-05-25T04:29:32.257Z,10664.00
2019-05-25T04:30:32.249Z,10924.00
2019-05-25T04:31:32.387Z,9860.00
2019-05-25T04:32:32.227Z,9352.00
2019-05-25T04:33:32.216Z,8992.00
2019-05-25T04:34:32.206Z,8500.00
2019-05-25T04:35:32.243Z,8208.00
2019-05-25T04:36:32.185Z,8128.00
2019-05-25T04:37:32.221Z,8396.00
2019-05-25T04:38:32.168Z,8360.00
2019-05-25T04:39:32.151Z,8696.00
2019-05-25T04:40:32.140Z,8832.00
2019-05-25T04:41:32.128Z,9052.00
2019-05-25T04:42:32.121Z,9304.00
2019-05-25T04:43:32.160Z,9600.00
2019-05-25T04:44:32.098Z,9528.00
2019-05-25T04:45:32.085Z,9528.00
2019-05-25T04:46:32.076Z,9852.00
2019-05-25T04:47:32.065Z,10020.00
2019-05-25T04:48:32.056Z,11848.00
2019-05-25T04:49:32.196Z,11912.00
2019-05-25T04:50:32.033Z,11832.00
2019-05-25T04:51:32.023Z,11076.00
2019-05-25T04:52:32.011Z,10944.00
2019-05-25T04:53:32.001Z,11792.00
2019-05-25T04:54:31.991Z,12692.00
2019-05-25T04:55:32.084Z,12104.00
2019-05-25T04:56:39.415Z,11180.00
2019-05-25T04:57:33.053Z,10408.00
2019-05-25T04:58:31.947Z,9936.00
2019-05-25T04:59:31.938Z,10820.00
2019-05-25T05:00:31.924Z,11344.00
2019-05-25T05:01:31.969Z,13272.00
2019-05-25T05:02:31.906Z,13708.00
2019-05-25T05:03:31.898Z,12304.00
2019-05-25T05:04:31.885Z,11760.00
2019-05-25T05:05:31.874Z,14408.00
2019-05-25T05:06:31.865Z,12308.00
2019-05-25T05:07:32.009Z,11764.00
2019-05-25T05:08:35.470Z,13668.00
2019-05-25T05:09:31.834Z,12084.00
2019-05-25T05:10:31.820Z,11784.00
2019-05-25T05:11:31.816Z,13108.00
2019-05-25T05:12:31.801Z,14232.00
2019-05-25T05:13:31.891Z,13800.00
2019-05-25T05:14:31.781Z,14424.00
2019-05-25T05:15:31.771Z,14360.00
2019-05-25T05:16:31.759Z,13388.00
2019-05-25T05:17:31.747Z,12948.00
2019-05-25T05:18:31.739Z,12988.00
2019-05-25T05:19:31.779Z,14964.00
2019-05-25T05:20:31.719Z,13528.00
2019-05-25T05:21:31.707Z,12872.00
2019-05-25T05:22:31.698Z,12400.00
2019-05-25T05:23:31.689Z,12060.00
2019-05-25T05:24:31.679Z,11528.00
2019-05-25T05:25:31.815Z,10724.00
2019-05-25T05:26:31.659Z,9912.00
2019-05-25T05:27:31.645Z,9328.00
2019-05-25T05:28:31.637Z,8896.00
2019-05-25T05:29:31.623Z,8524.00
2019-05-25T05:30:31.616Z,8372.00
2019-05-25T05:31:31.654Z,8484.00
2019-05-25T05:32:31.594Z,8664.00
2019-05-25T05:33:31.593Z,8672.00
2019-05-25T05:34:31.609Z,8492.00
2019-05-25T05:35:31.565Z,8172.00
2019-05-25T05:36:31.552Z,7728.00
2019-05-25T05:37:31.593Z,7244.00
2019-05-25T05:38:31.530Z,6768.00
2019-05-25T05:39:31.524Z,6316.00
2019-05-25T05:40:31.511Z,5884.00
2019-05-25T05:41:31.502Z,5504.00
2019-05-25T05:42:31.490Z,5140.00
2019-05-25T05:43:31.729Z,4820.00
2019-05-25T05:44:31.468Z,4596.00
2019-05-25T05:45:31.456Z,4468.00
2019-05-25T05:46:31.448Z,4428.00
2019-05-25T05:47:31.437Z,4400.00
2019-05-25T05:48:31.428Z,4380.00
2019-05-25T05:49:31.467Z,4372.00
2019-05-25T05:50:31.408Z,4356.00
2019-05-25T05:51:31.398Z,4324.00
2019-05-25T05:52:31.384Z,4296.00
2019-05-25T05:53:31.374Z,4368.00
2019-05-25T05:54:31.363Z,4548.00
2019-05-25T05:56:31.446Z,4820.00
2019-05-25T05:57:31.335Z,4868.00
2019-05-25T05:58:31.325Z,4884.00
2019-05-25T05:59:31.331Z,4836.00
2019-05-25T06:00:31.302Z,4672.00
2019-05-25T06:01:31.443Z,4444.00
2019-05-25T06:02:31.280Z,4224.00
2019-05-25T06:03:31.273Z,4000.00
2019-05-25T06:04:31.259Z,3832.00
2019-05-25T06:05:31.248Z,3716.00
2019-05-25T06:06:31.237Z,3636.00
2019-05-25T06:07:31.282Z,3560.00
2019-05-25T06:08:31.217Z,3472.00
2019-05-25T06:09:31.207Z,3384.00
2019-05-25T06:10:31.196Z,3260.00
2019-05-25T06:11:31.182Z,3140.00
2019-05-25T06:12:31.174Z,3044.00
2019-05-25T06:13:31.215Z,3004.00
2019-05-25T06:14:31.154Z,3000.00
2019-05-25T06:15:31.145Z,3008.00
2019-05-25T06:16:31.128Z,3020.00
2019-05-25T06:17:31.278Z,2996.00
2019-05-25T06:18:31.106Z,2980.00
2019-05-25T06:19:31.248Z,3004.00
2019-05-25T06:20:31.106Z,3076.00
2019-05-25T06:21:31.073Z,3232.00
2019-05-25T06:22:31.062Z,3444.00
2019-05-25T06:23:31.056Z,3696.00
2019-05-25T06:24:31.045Z,3968.00
2019-05-25T06:25:31.081Z,4224.00
2019-05-25T06:26:31.021Z,4496.00
2019-05-25T06:27:31.012Z,4776.00
2019-05-25T06:28:30.998Z,4964.00
2019-05-25T06:29:30.988Z,5108.00
2019-05-25T06:30:30.976Z,5268.00
2019-05-25T06:31:31.013Z,5312.00
2019-05-25T06:32:30.964Z,5196.00
2019-05-25T06:33:30.945Z,4984.00
2019-05-25T06:34:30.934Z,4776.00
2019-05-25T06:35:30.918Z,4572.00
2019-05-25T06:36:30.911Z,4384.00
2019-05-25T06:37:31.057Z,4160.00
2019-05-25T06:38:30.889Z,3940.00
2019-05-25T06:39:30.894Z,3736.00
2019-05-25T06:40:30.865Z,3564.00
2019-05-25T06:41:30.856Z,3432.00
2019-05-25T06:42:30.847Z,3344.00
2019-05-25T06:43:30.887Z,3320.00
2019-05-25T06:44:30.827Z,3348.00
2019-05-25T06:45:30.818Z,3428.00
2019-05-25T06:46:30.801Z,3488.00
2019-05-25T06:47:30.790Z,3540.00
2019-05-25T06:48:30.782Z,3576.00
2019-05-25T06:49:30.866Z,3588.00
2019-05-25T06:50:30.758Z,3584.00
2019-05-25T06:51:30.748Z,3560.00
2019-05-25T06:52:30.735Z,3536.00
2019-05-25T06:53:30.723Z,3500.00
2019-05-25T06:54:30.713Z,3476.00
2019-05-25T06:55:30.857Z,3492.00
2019-05-25T06:56:30.693Z,3544.00
2019-05-25T06:57:42.466Z,3624.00
2019-05-25T06:58:55.495Z,3804.00
2019-05-25T06:59:55.474Z,4016.00
2019-05-25T07:00:55.866Z,4312.00
2019-05-25T07:01:55.455Z,4676.00
2019-05-25T07:02:55.444Z,4996.00
2019-05-25T07:03:55.437Z,5320.00
2019-05-25T07:04:55.422Z,5676.00
2019-05-25T07:05:55.410Z,6264.00
2019-05-25T07:06:55.450Z,7080.00
2019-05-25T07:07:55.392Z,7992.00
2019-05-25T07:08:55.388Z,8716.00
2019-05-25T07:09:55.372Z,9424.00
2019-05-25T07:10:55.368Z,9864.00
2019-05-25T07:11:55.350Z,10148.00
2019-05-25T07:12:55.489Z,10292.00
2019-05-25T07:13:55.331Z,10420.00
2019-05-25T07:14:55.317Z,10632.00
2019-05-25T07:15:55.307Z,10824.00
2019-05-25T07:16:55.298Z,11000.00
2019-05-25T07:17:55.289Z,11340.00
2019-05-25T07:18:55.379Z,11652.00
2019-05-25T07:19:55.269Z,11624.00
2019-05-25T07:20:55.261Z,11248.00
2019-05-25T07:21:55.248Z,11120.00
2019-05-25T07:22:55.237Z,11008.00
2019-05-25T07:23:55.277Z,10792.00
2019-05-25T07:24:55.217Z,10596.00
2019-05-25T07:25:55.205Z,10332.00
2019-05-25T07:26:55.198Z,10280.00
2019-05-25T07:27:59.689Z,10172.00
2019-05-25T07:28:55.173Z,10236.00
2019-05-25T07:29:55.211Z,10140.00
2019-05-25T07:30:55.151Z,10100.00
2019-05-25T07:31:55.142Z,9848.00
2019-05-25T07:32:55.132Z,9612.00
2019-05-25T07:33:55.120Z,9500.00
2019-05-25T07:34:55.278Z,9348.00
2019-05-25T07:35:55.098Z,9340.00
2019-05-25T07:36:55.089Z,9216.00
2019-05-25T07:37:55.078Z,9040.00
2019-05-25T07:38:55.068Z,8912.00
2019-05-25T07:39:55.069Z,8828.00
2019-05-25T07:40:55.147Z,8672.00
2019-05-25T07:41:55.038Z,8488.00
2019-05-25T07:42:55.030Z,8392.00
2019-05-25T07:43:55.010Z,8292.00
2019-05-25T07:44:55.001Z,8148.00
2019-05-25T07:45:54.990Z,8000.00
2019-05-25T07:46:55.033Z,7880.00
2019-05-25T07:47:54.971Z,7736.00
2019-05-25T07:48:54.957Z,7532.00
2019-05-25T07:49:54.946Z,7244.00
2019-05-25T07:50:54.934Z,7008.00
2019-05-25T07:51:54.926Z,6728.00
2019-05-25T07:52:55.069Z,6580.00
2019-05-25T07:53:54.906Z,6484.00
2019-05-25T07:54:54.893Z,6392.00
2019-05-25T07:55:54.883Z,6320.00
2019-05-25T07:56:54.873Z,6236.00
2019-05-25T07:57:54.881Z,6120.00
2019-05-25T07:58:54.900Z,5944.00
2019-05-25T07:59:54.846Z,5760.00
2019-05-25T08:00:54.831Z,5640.00
2019-05-25T08:01:54.820Z,5732.00
2019-05-25T08:02:54.896Z,6132.00
2019-05-25T08:03:54.799Z,6736.00
2019-05-25T08:04:54.838Z,7328.00
2019-05-25T08:05:54.779Z,7768.00
2019-05-25T08:06:54.827Z,7908.00
2019-05-25T08:07:54.758Z,7788.00
2019-05-25T08:08:54.747Z,7516.00
2019-05-25T08:09:54.736Z,7408.00
2019-05-25T08:10:55.125Z,7508.00
2019-05-25T08:11:54.718Z,7716.00
2019-05-25T08:12:54.706Z,7836.00
2019-05-25T08:13:54.696Z,7656.00
2019-05-25T08:14:54.685Z,7536.00
2019-05-25T08:15:54.674Z,7376.00
2019-05-25T08:16:54.713Z,7128.00
2019-05-25T08:17:54.703Z,6852.00
2019-05-25T08:18:54.642Z,6704.00
2019-05-25T08:19:54.631Z,6700.00
2019-05-25T08:20:54.620Z,6828.00
2019-05-25T08:21:54.611Z,6976.00
2019-05-25T08:22:54.650Z,7080.00
2019-05-25T08:23:54.606Z,7096.00
2019-05-25T08:24:54.580Z,7120.00
2019-05-25T08:25:54.566Z,7148.00
2019-05-25T08:26:54.557Z,7128.00
2019-05-25T08:27:54.548Z,7184.00
2019-05-25T08:28:54.935Z,7184.00
2019-05-25T08:29:54.524Z,7144.00
2019-05-25T08:30:54.516Z,7128.00
2019-05-25T08:31:54.506Z,7124.00
2019-05-25T08:32:54.497Z,7120.00
2019-05-25T08:33:54.486Z,6988.00
2019-05-25T08:34:54.526Z,6720.00
2019-05-25T08:35:54.464Z,6524.00
2019-05-25T08:36:54.451Z,6456.00
2019-05-25T08:37:54.446Z,6412.00
2019-05-25T08:38:55.009Z,6344.00
2019-05-25T08:40:54.465Z,6076.00
2019-05-25T08:41:54.401Z,6008.00
2019-05-25T08:42:54.406Z,6016.00
2019-05-25T08:43:54.381Z,6056.00
2019-05-25T08:44:54.370Z,6028.00
2019-05-25T08:45:54.362Z,5856.00
2019-05-25T08:46:55.479Z,5628.00
2019-05-25T08:47:56.951Z,5336.00
2019-05-25T08:48:54.334Z,5064.00
2019-05-25T08:49:54.321Z,4792.00
2019-05-25T08:50:54.313Z,4600.00
2019-05-25T08:51:55.019Z,4472.00
2019-05-25T08:52:54.340Z,4384.00
2019-05-25T08:53:54.278Z,4344.00
2019-05-25T08:54:56.771Z,4320.00
2019-05-25T08:55:54.258Z,4324.00
2019-05-25T08:56:54.251Z,4340.00
2019-05-25T08:57:54.238Z,4380.00
2019-05-25T08:58:55.629Z,4392.00
2019-05-25T08:59:54.217Z,4348.00
2019-05-25T09:00:54.221Z,4236.00
2019-05-25T09:01:54.201Z,4112.00
2019-05-25T09:02:54.187Z,4044.00
2019-05-25T09:03:54.178Z,3980.00
2019-05-25T09:04:54.318Z,3876.00
2019-05-25T09:05:54.154Z,3748.00
2019-05-25T09:06:54.144Z,3628.00
2019-05-25T09:07:54.135Z,3476.00
2019-05-25T09:08:54.127Z,3340.00
2019-05-25T09:09:54.115Z,3236.00
2019-05-25T09:11:54.143Z,3276.00
2019-05-25T09:12:54.084Z,3496.00
2019-05-25T09:13:54.074Z,3652.00
2019-05-25T09:14:54.071Z,3680.00
2019-05-25T09:15:54.050Z,3672.00
2019-05-25T09:16:54.040Z,3692.00
2019-05-25T09:17:54.079Z,3736.00
2019-05-25T09:18:54.020Z,3812.00
2019-05-25T09:19:54.010Z,3896.00
2019-05-25T09:20:53.996Z,3952.00
2019-05-25T09:22:02.772Z,3976.00
2019-05-25T09:23:18.936Z,4080.00
2019-05-25T09:24:18.929Z,4196.00
2019-05-25T09:25:18.921Z,4320.00
2019-05-25T09:26:18.904Z,4416.00
2019-05-25T09:27:18.894Z,4532.00
2019-05-25T09:28:18.934Z,4692.00
2019-05-25T09:29:18.874Z,4812.00
2019-05-25T09:30:18.866Z,4764.00
2019-05-25T09:31:18.852Z,4556.00
2019-05-25T09:32:18.845Z,4240.00
2019-05-25T09:33:18.829Z,3912.00
2019-05-25T09:34:18.869Z,3664.00
2019-05-25T09:35:18.807Z,3480.00
2019-05-25T09:36:18.797Z,3352.00
2019-05-25T09:37:18.785Z,3220.00
2019-05-25T09:38:18.810Z,3048.00
2019-05-25T09:39:18.818Z,2900.00
2019-05-25T09:40:18.752Z,2828.00
2019-05-25T09:41:18.744Z,2868.00
2019-05-25T09:42:18.732Z,3040.00
2019-05-25T09:43:18.719Z,3316.00
2019-05-25T09:44:18.789Z,3632.00
2019-05-25T09:45:18.799Z,3828.00
2019-05-25T09:46:18.770Z,3880.00
2019-05-25T09:47:18.678Z,3932.00
2019-05-25T09:48:18.666Z,4020.00
2019-05-25T09:49:18.655Z,4020.00
2019-05-25T09:50:18.648Z,4024.00
2019-05-25T09:51:18.684Z,3956.00
2019-05-25T09:52:18.624Z,3784.00
2019-05-25T09:53:18.612Z,3560.00
2019-05-25T09:54:18.604Z,3420.00
2019-05-25T09:55:18.586Z,3444.00
2019-05-25T09:56:18.583Z,3652.00
2019-05-25T09:57:18.670Z,3884.00
2019-05-25T09:58:18.558Z,4024.00
2019-05-25T09:59:20.281Z,3992.00
2019-05-25T10:00:18.547Z,3796.00
2019-05-25T10:01:18.526Z,3536.00
2019-05-25T10:02:18.513Z,3288.00
2019-05-25T10:03:18.550Z,3084.00
2019-05-25T10:04:18.491Z,2976.00
2019-05-25T10:05:18.594Z,2940.00
2019-05-25T10:06:18.471Z,2952.00
2019-05-25T10:07:18.460Z,2964.00
2019-05-25T10:08:18.481Z,2952.00
2019-05-25T10:09:18.537Z,2904.00
2019-05-25T10:10:18.427Z,2856.00
2019-05-25T10:11:18.416Z,2840.00
2019-05-25T10:12:18.406Z,2864.00
2019-05-25T10:13:18.392Z,2932.00
2019-05-25T10:14:18.381Z,3088.00
2019-05-25T10:15:18.452Z,3288.00
2019-05-25T10:16:18.358Z,3472.00
2019-05-25T10:17:18.355Z,3544.00
2019-05-25T10:18:18.340Z,3548.00
2019-05-25T10:19:18.326Z,3600.00
2019-05-25T10:20:18.316Z,3796.00
2019-05-25T10:21:18.353Z,4056.00
2019-05-25T10:22:18.296Z,4272.00
2019-05-25T10:23:18.285Z,4412.00
2019-05-25T10:24:18.273Z,4548.00
2019-05-25T10:25:18.263Z,4752.00
2019-05-25T10:26:18.252Z,5056.00
2019-05-25T10:27:18.345Z,5356.00
2019-05-25T10:28:18.231Z,5464.00
2019-05-25T10:29:18.218Z,5368.00
2019-05-25T10:30:18.208Z,5068.00
2019-05-25T10:31:18.205Z,4708.00
2019-05-25T10:32:18.334Z,4316.00
2019-05-25T10:33:21.673Z,3968.00
2019-05-25T10:34:18.165Z,3672.00
2019-05-25T10:35:18.154Z,3456.00
2019-05-25T10:36:18.143Z,3324.00
2019-05-25T10:37:18.180Z,3336.00
2019-05-25T10:38:18.119Z,3460.00
2019-05-25T10:39:18.108Z,3668.00
2019-05-25T10:40:18.098Z,3804.00
2019-05-25T10:41:18.090Z,3868.00
2019-05-25T10:42:18.125Z,3884.00
2019-05-25T10:43:18.066Z,3924.00
2019-05-25T10:44:18.053Z,4008.00
2019-05-25T10:45:18.044Z,4068.00
2019-05-25T10:46:18.033Z,4100.00
2019-05-25T10:47:18.026Z,4132.00
2019-05-25T10:48:18.260Z,4228.00
2019-05-25T10:49:18.003Z,4340.00
2019-05-25T10:50:17.997Z,4456.00
2019-05-25T10:51:17.981Z,4640.00
2019-05-25T10:52:17.977Z,4904.00
2019-05-25T10:53:17.956Z,5144.00
2019-05-25T10:54:17.995Z,5264.00
2019-05-25T10:55:17.936Z,5324.00
2019-05-25T10:56:17.922Z,5304.00
2019-05-25T10:57:17.914Z,5180.00
2019-05-25T10:58:17.900Z,5072.00
2019-05-25T10:59:17.890Z,5064.00
2019-05-25T11:00:17.979Z,5172.00
2019-05-25T11:01:17.868Z,5412.00
2019-05-25T11:02:17.859Z,5676.00
2019-05-25T11:03:17.847Z,5832.00
2019-05-25T11:04:17.834Z,5884.00
2019-05-25T11:05:17.842Z,5804.00
2019-05-25T11:07:17.853Z,5604.00
2019-05-25T11:08:17.794Z,5548.00
2019-05-25T11:09:17.781Z,5568.00
2019-05-25T11:10:17.770Z,5584.00
2019-05-25T11:11:17.761Z,5556.00
2019-05-25T11:12:17.898Z,5396.00
2019-05-25T11:13:17.739Z,5116.00
2019-05-25T11:14:17.727Z,4812.00
2019-05-25T11:15:17.723Z,4372.00
2019-05-25T11:16:17.735Z,3828.00
2019-05-25T11:17:17.702Z,3312.00
2019-05-25T11:18:17.737Z,2940.00
2019-05-25T11:19:17.672Z,2732.00
2019-05-25T11:20:17.662Z,2628.00
2019-05-25T11:21:17.671Z,2652.00
2019-05-25T11:22:17.639Z,2820.00
2019-05-25T11:23:17.629Z,3076.00
2019-05-25T11:24:17.718Z,3304.00
2019-05-25T11:25:17.607Z,3408.00
2019-05-25T11:26:17.599Z,3392.00
2019-05-25T11:27:17.587Z,3248.00
2019-05-25T11:28:17.574Z,3028.00
2019-05-25T11:29:17.570Z,2800.00
2019-05-25T11:30:17.752Z,2596.00
2019-05-25T11:31:17.540Z,2424.00
2019-05-25T11:32:17.533Z,2312.00
2019-05-25T11:33:17.521Z,2236.00
2019-05-25T11:34:17.511Z,2192.00
2019-05-25T11:35:17.500Z,2168.00
2019-05-25T11:36:17.591Z,2100.00
2019-05-25T11:37:17.479Z,2012.00
2019-05-25T11:38:17.480Z,1896.00
2019-05-25T11:39:17.459Z,1792.00
2019-05-25T11:40:17.448Z,1736.00
2019-05-25T11:41:17.435Z,1752.00
2019-05-25T11:42:17.506Z,1824.00
2019-05-25T11:43:17.414Z,1900.00
2019-05-25T11:44:17.403Z,1972.00
2019-05-25T11:45:17.391Z,2056.00
2019-05-25T11:46:17.381Z,2148.00
2019-05-25T11:47:17.378Z,2248.00
2019-05-25T11:48:17.538Z,2340.00
2019-05-25T11:49:22.625Z,2424.00
2019-05-25T11:50:17.340Z,2504.00
2019-05-25T11:51:17.327Z,2556.00
2019-05-25T11:52:17.316Z,2568.00
2019-05-25T11:53:17.307Z,2532.00
2019-05-25T11:54:17.344Z,2476.00
2019-05-25T11:55:17.310Z,2420.00
2019-05-25T11:56:17.274Z,2396.00
2019-05-25T11:57:17.264Z,2396.00
2019-05-25T11:58:17.255Z,2396.00
2019-05-25T11:59:17.243Z,2392.00
2019-05-25T12:00:24.778Z,2404.00
2019-05-25T12:01:42.033Z,2424.00
2019-05-25T12:02:42.025Z,2420.00
2019-05-25T12:03:42.011Z,2412.00
2019-05-25T12:04:42.003Z,2408.00
2019-05-25T12:05:42.141Z,2432.00
2019-05-25T12:06:41.981Z,2528.00
2019-05-25T12:07:44.659Z,2696.00
2019-05-25T12:08:41.961Z,2980.00
2019-05-25T12:09:41.948Z,3396.00
2019-05-25T12:10:41.940Z,3860.00
2019-05-25T12:11:42.029Z,4288.00
2019-05-25T12:12:41.939Z,4572.00
2019-05-25T12:13:41.907Z,4688.00
2019-05-25T12:14:41.898Z,4684.00
2019-05-25T12:15:41.885Z,4556.00
2019-05-25T12:16:41.877Z,4412.00
2019-05-25T12:17:41.914Z,4208.00
2019-05-25T12:18:41.852Z,3896.00
2019-05-25T12:19:41.849Z,3780.00